createdAt,value
2023-05-16T00:01:14.957Z,50.86
2023-05-16T00:04:00.254Z,50.59
2023-05-16T00:06:46.125Z,50.50
2023-05-16T00:09:31.364Z,50.27
2023-05-16T00:12:17.845Z,50.32
2023-05-16T00:15:05.377Z,50.17
2023-05-16T00:17:51.924Z,50.17
2023-05-16T00:20:37.632Z,50.17
2023-05-16T00:23:23.366Z,50.11
2023-05-16T00:26:08.831Z,50.04
2023-05-16T00:28:54.253Z,49.89
2023-05-16T00:31:39.503Z,50.04
2023-05-16T00:34:24.834Z,49.88
2023-05-16T00:37:11.184Z,49.65
2023-05-16T00:39:56.508Z,49.85
2023-05-16T00:42:41.904Z,49.85
2023-05-16T00:45:27.268Z,49.78
2023-05-16T00:48:15.104Z,49.73
2023-05-16T00:51:01.924Z,49.79
2023-05-16T00:53:47.315Z,49.78
2023-05-16T00:56:33.990Z,49.68
2023-05-16T00:59:20.407Z,49.73
2023-05-16T01:02:06.012Z,49.62
2023-05-16T01:04:51.908Z,49.63
2023-05-16T01:07:37.446Z,49.60
2023-05-16T01:10:23.601Z,49.46
2023-05-16T01:13:18.377Z,49.43
2023-05-16T01:16:31.614Z,49.38
2023-05-16T01:19:47.344Z,49.48
2023-05-16T01:22:47.757Z,49.12
2023-05-16T01:25:56.690Z,49.35
2023-05-16T01:28:44.350Z,49.27
2023-05-16T01:31:30.471Z,49.14
2023-05-16T01:34:16.153Z,49.05
2023-05-16T01:37:19.807Z,48.95
2023-05-16T01:40:12.871Z,49.06
2023-05-16T01:43:03.092Z,48.99
2023-05-16T01:45:55.297Z,48.95
2023-05-16T01:49:13.285Z,48.73
2023-05-16T01:52:02.346Z,48.84
2023-05-16T01:54:48.730Z,48.80
2023-05-16T01:57:35.566Z,48.83
2023-05-16T02:00:21.536Z,48.83
2023-05-16T02:03:07.235Z,48.73
2023-05-16T02:05:52.502Z,48.58
2023-05-16T02:08:37.891Z,48.67
2023-05-16T02:11:23.302Z,48.44
2023-05-16T02:14:08.726Z,48.47
2023-05-16T02:16:54.933Z,48.49
2023-05-16T02:19:40.632Z,48.43
2023-05-16T02:22:26.093Z,48.26
2023-05-16T02:25:12.476Z,48.28
2023-05-16T02:27:59.970Z,48.27
2023-05-16T02:30:45.509Z,48.39
2023-05-16T02:33:31.074Z,48.38
2023-05-16T02:36:16.628Z,48.33
2023-05-16T02:39:04.160Z,48.39
2023-05-16T02:41:49.498Z,48.21
2023-05-16T02:44:35.013Z,48.28
2023-05-16T02:47:20.443Z,48.20
2023-05-16T02:50:06.356Z,48.19
2023-05-16T02:52:53.618Z,48.34
2023-05-16T02:55:39.079Z,48.42
2023-05-16T02:58:26.199Z,48.54
2023-05-16T03:01:11.664Z,48.46
2023-05-16T03:03:57.477Z,48.16
2023-05-16T03:06:43.268Z,48.12
2023-05-16T03:09:28.883Z,48.09
2023-05-16T03:12:15.584Z,48.18
2023-05-16T03:15:01.975Z,48.19
2023-05-16T03:17:48.100Z,48.36
2023-05-16T03:20:33.485Z,48.45
2023-05-16T03:23:22.409Z,48.50
2023-05-16T03:26:07.994Z,48.43
2023-05-16T03:28:53.567Z,48.51
2023-05-16T03:31:39.299Z,48.51
2023-05-16T03:34:24.925Z,48.66
2023-05-16T03:37:11.184Z,48.96
2023-05-16T03:39:56.920Z,49.36
2023-05-16T03:42:42.258Z,50.28
2023-05-16T03:45:27.784Z,49.96
2023-05-16T03:48:15.130Z,49.58
2023-05-16T03:51:01.652Z,50.06
2023-05-16T03:53:47.115Z,49.93
2023-05-16T03:56:32.325Z,49.96
2023-05-16T03:59:18.261Z,50.26
2023-05-16T04:02:04.099Z,50.17
2023-05-16T04:04:49.712Z,50.87
2023-05-16T04:07:35.125Z,51.19
2023-05-16T04:10:20.848Z,51.29
2023-05-16T04:13:07.246Z,51.91
2023-05-16T04:15:52.767Z,51.30
2023-05-16T04:18:38.472Z,51.10
2023-05-16T04:21:24.024Z,50.66
2023-05-16T04:24:09.351Z,50.71
2023-05-16T04:26:55.627Z,50.33
2023-05-16T04:29:41.145Z,50.28
2023-05-16T04:32:28.830Z,50.34
2023-05-16T04:35:14.750Z,49.82
2023-05-16T04:38:00.281Z,49.51
2023-05-16T04:40:45.709Z,50.05
2023-05-16T04:43:31.247Z,50.56
2023-05-16T04:46:16.627Z,50.52
2023-05-16T04:49:02.126Z,50.31
2023-05-16T04:51:48.838Z,50.61
2023-05-16T04:54:34.604Z,50.00
2023-05-16T04:57:20.258Z,49.02
2023-05-16T05:00:12.172Z,48.10
2023-05-16T05:02:57.702Z,48.12
2023-05-16T05:05:43.115Z,49.36
2023-05-16T05:08:28.318Z,49.10
2023-05-16T05:11:13.555Z,48.85
2023-05-16T05:13:58.827Z,48.06
2023-05-16T05:16:44.125Z,47.05
2023-05-16T05:19:29.576Z,46.17
2023-05-16T05:22:15.269Z,46.06
2023-05-16T05:25:00.962Z,46.00
2023-05-16T05:27:46.405Z,45.57
2023-05-16T05:30:32.261Z,45.42
2023-05-16T05:33:20.644Z,45.20
2023-05-16T05:36:06.344Z,45.33
2023-05-16T05:38:51.922Z,45.50
2023-05-16T05:41:38.046Z,45.38
2023-05-16T05:44:23.538Z,45.23
2023-05-16T05:47:08.945Z,45.26
2023-05-16T05:49:54.283Z,45.32
2023-05-16T05:52:39.958Z,45.51
2023-05-16T05:55:25.920Z,45.54
2023-05-16T05:58:11.587Z,45.86
2023-05-16T06:00:56.887Z,45.97
2023-05-16T06:03:42.907Z,45.98
2023-05-16T06:06:28.335Z,46.20
2023-05-16T06:09:15.129Z,46.10
2023-05-16T06:12:00.327Z,46.22
2023-05-16T06:14:45.700Z,46.25
2023-05-16T06:17:31.192Z,46.22
2023-05-16T06:20:16.725Z,45.85
2023-05-16T06:23:02.632Z,45.87
2023-05-16T06:25:48.045Z,46.03
2023-05-16T06:28:33.358Z,46.04
2023-05-16T06:31:18.700Z,45.84
2023-05-16T06:34:04.342Z,45.64
2023-05-16T06:36:49.880Z,45.44
2023-05-16T06:39:34.988Z,45.73
2023-05-16T06:42:20.707Z,45.57
2023-05-16T06:45:08.987Z,45.28
2023-05-16T06:47:57.417Z,45.37
2023-05-16T06:50:42.851Z,45.37
2023-05-16T06:53:28.791Z,45.25
2023-05-16T06:56:14.005Z,45.00
2023-05-16T06:59:01.727Z,45.21
2023-05-16T07:01:47.238Z,45.24
2023-05-16T07:04:32.976Z,45.13
2023-05-16T07:07:18.358Z,45.33
2023-05-16T07:10:04.322Z,44.71
2023-05-16T07:12:49.941Z,44.83
2023-05-16T07:15:35.379Z,45.00
2023-05-16T07:18:24.124Z,44.81
2023-05-16T07:21:09.442Z,44.58
2023-05-16T07:23:54.956Z,44.88
2023-05-16T07:26:40.412Z,45.03
2023-05-16T07:29:27.120Z,44.64
2023-05-16T07:32:12.569Z,44.53
2023-05-16T07:34:57.803Z,44.58
2023-05-16T07:37:43.623Z,44.76
2023-05-16T07:40:29.560Z,45.03
2023-05-16T07:43:15.000Z,45.03
2023-05-16T07:46:01.829Z,44.74
2023-05-16T07:48:47.643Z,44.67
2023-05-16T07:51:33.484Z,44.98
2023-05-16T07:54:18.750Z,44.69
2023-05-16T07:57:04.259Z,44.89
2023-05-16T07:59:52.436Z,44.90
2023-05-16T08:02:38.557Z,45.13
2023-05-16T08:05:24.533Z,45.02
2023-05-16T08:08:09.985Z,45.06
2023-05-16T08:10:55.460Z,44.84
2023-05-16T08:13:40.882Z,45.11
2023-05-16T08:16:26.257Z,45.24
2023-05-16T08:19:12.168Z,45.46
2023-05-16T08:21:57.387Z,45.42
2023-05-16T08:24:42.765Z,45.42
2023-05-16T08:27:28.921Z,45.18
2023-05-16T08:30:14.972Z,45.27
2023-05-16T08:33:04.812Z,45.13
2023-05-16T08:35:52.988Z,45.57
2023-05-16T08:38:38.241Z,45.09
2023-05-16T08:41:23.965Z,45.39
2023-05-16T08:44:12.430Z,45.25
2023-05-16T08:47:02.071Z,45.47
2023-05-16T08:49:52.419Z,45.73
2023-05-16T08:52:40.190Z,45.44
2023-05-16T08:55:27.384Z,45.69
2023-05-16T08:58:13.508Z,45.31
2023-05-16T09:00:58.816Z,45.62
2023-05-16T09:03:44.621Z,45.39
2023-05-16T09:06:30.298Z,45.34
2023-05-16T09:09:15.840Z,45.31
2023-05-16T09:12:01.353Z,45.34
2023-05-16T09:14:47.470Z,45.53
2023-05-16T09:17:42.551Z,45.46
2023-05-16T09:20:28.776Z,45.60
2023-05-16T09:23:14.521Z,45.81
2023-05-16T09:25:59.834Z,45.64
2023-05-16T09:28:45.377Z,45.73
2023-05-16T09:31:36.887Z,45.69
2023-05-16T09:34:22.874Z,45.23
2023-05-16T09:37:10.299Z,45.55
2023-05-16T09:39:55.852Z,45.31
2023-05-16T09:42:44.444Z,45.56
2023-05-16T09:45:30.821Z,45.55
2023-05-16T09:48:18.122Z,45.64
2023-05-16T09:51:06.236Z,45.98
2023-05-16T09:53:51.976Z,45.72
2023-05-16T09:56:50.282Z,45.98
2023-05-16T09:59:37.256Z,45.88
2023-05-16T10:02:23.327Z,45.75
2023-05-16T10:05:08.855Z,45.93
2023-05-16T10:07:56.790Z,45.89
2023-05-16T10:10:42.715Z,46.15
2023-05-16T10:13:33.218Z,45.99
2023-05-16T10:16:21.864Z,46.11
2023-05-16T10:19:07.453Z,46.11
2023-05-16T10:22:00.997Z,45.83
2023-05-16T10:25:05.344Z,46.07
2023-05-16T10:27:54.229Z,45.95
2023-05-16T10:30:44.093Z,46.08
2023-05-16T10:33:29.863Z,45.94
2023-05-16T10:36:16.483Z,46.07
2023-05-16T10:39:02.619Z,46.13
2023-05-16T10:41:48.413Z,46.04
2023-05-16T10:44:34.239Z,46.19
2023-05-16T10:47:20.348Z,46.12
2023-05-16T10:50:06.494Z,46.06
2023-05-16T10:52:52.986Z,46.06
2023-05-16T10:56:06.231Z,46.08
2023-05-16T10:58:53.881Z,46.31
2023-05-16T11:01:41.415Z,46.09
2023-05-16T11:04:45.992Z,46.45
2023-05-16T11:07:36.901Z,46.11
2023-05-16T11:10:22.465Z,46.17
2023-05-16T11:13:08.518Z,45.99
2023-05-16T11:16:29.353Z,46.06
2023-05-16T11:19:28.075Z,46.22
2023-05-16T11:22:19.587Z,45.84
2023-05-16T11:25:07.397Z,45.85
2023-05-16T11:27:52.656Z,45.91
2023-05-16T11:30:43.077Z,45.96
2023-05-16T11:33:34.372Z,45.93
2023-05-16T11:36:20.034Z,45.74
2023-05-16T11:39:10.232Z,45.67
2023-05-16T11:41:56.202Z,46.21
2023-05-16T11:44:42.165Z,46.08
2023-05-16T11:47:29.907Z,45.83
2023-05-16T11:50:22.980Z,45.90
2023-05-16T11:53:10.132Z,45.68
2023-05-16T11:55:58.136Z,46.21
2023-05-16T11:58:45.702Z,45.71
2023-05-16T12:01:39.225Z,46.39
2023-05-16T12:04:25.081Z,45.58
2023-05-16T12:07:10.600Z,45.66
2023-05-16T12:09:56.038Z,45.44
2023-05-16T12:12:44.986Z,45.48
2023-05-16T12:15:31.090Z,45.79
2023-05-16T12:18:17.373Z,45.80
2023-05-16T12:21:02.851Z,45.80
2023-05-16T12:23:48.207Z,45.88
2023-05-16T12:26:33.928Z,45.75
2023-05-16T12:29:21.693Z,45.65
2023-05-16T12:32:08.969Z,45.66
2023-05-16T12:34:54.835Z,45.62
2023-05-16T12:37:40.337Z,46.01
2023-05-16T12:40:33.171Z,45.78
2023-05-16T12:43:21.810Z,45.80
2023-05-16T12:46:14.909Z,46.03
2023-05-16T12:49:06.501Z,45.78
2023-05-16T12:52:01.085Z,46.02
2023-05-16T12:54:48.397Z,46.41
2023-05-16T12:57:35.068Z,46.50
2023-05-16T13:00:21.738Z,46.60
2023-05-16T13:03:10.130Z,46.76
2023-05-16T13:05:55.419Z,46.84
2023-05-16T13:08:40.651Z,46.73
2023-05-16T13:11:26.393Z,46.87
2023-05-16T13:14:11.697Z,46.73
2023-05-16T13:16:56.886Z,46.64
2023-05-16T13:19:42.338Z,47.02
2023-05-16T13:22:27.667Z,47.12
2023-05-16T13:25:13.106Z,46.96
2023-05-16T13:27:58.404Z,47.14
2023-05-16T13:30:43.602Z,47.24
2023-05-16T13:33:29.215Z,47.19
2023-05-16T13:36:14.937Z,47.37
2023-05-16T13:39:00.261Z,46.95
2023-05-16T13:41:47.375Z,47.47
2023-05-16T13:44:38.137Z,47.30
2023-05-16T13:47:26.192Z,47.27
2023-05-16T13:50:12.270Z,47.54
2023-05-16T13:52:58.012Z,48.03
2023-05-16T13:55:43.507Z,48.39
2023-05-16T13:58:28.874Z,48.32
2023-05-16T14:01:14.808Z,48.03
2023-05-16T14:04:00.358Z,48.16
2023-05-16T14:06:45.564Z,48.04
2023-05-16T14:09:31.686Z,48.20
2023-05-16T14:12:17.325Z,48.42
2023-05-16T14:15:02.593Z,48.83
2023-05-16T14:17:48.122Z,48.98
2023-05-16T14:20:33.686Z,49.23
2023-05-16T14:23:18.880Z,49.06
2023-05-16T14:26:06.984Z,49.42
2023-05-16T14:28:53.269Z,49.84
2023-05-16T14:31:38.581Z,49.77
2023-05-16T14:34:24.416Z,49.76
2023-05-16T14:37:11.883Z,49.91
2023-05-16T14:39:57.764Z,49.79
2023-05-16T14:42:43.333Z,49.85
2023-05-16T14:45:29.359Z,49.80
2023-05-16T14:48:14.953Z,49.81
2023-05-16T14:51:00.807Z,50.15
2023-05-16T14:53:47.312Z,50.01
2023-05-16T14:56:32.761Z,50.11
2023-05-16T14:59:17.865Z,50.23
2023-05-16T15:02:04.076Z,50.08
2023-05-16T15:04:49.810Z,50.25
2023-05-16T15:07:35.517Z,50.13
2023-05-16T15:10:20.998Z,50.04
2023-05-16T15:13:06.479Z,50.12
2023-05-16T15:15:52.437Z,50.06
2023-05-16T15:18:38.106Z,50.13
2023-05-16T15:21:23.962Z,50.13
2023-05-16T15:24:09.529Z,49.73
2023-05-16T15:26:55.538Z,50.02
2023-05-16T15:29:41.240Z,50.02
2023-05-16T15:32:26.982Z,49.87
2023-05-16T15:35:12.501Z,49.81
2023-05-16T15:37:59.750Z,50.21
2023-05-16T15:40:45.235Z,50.06
2023-05-16T15:43:30.549Z,50.13
2023-05-16T15:46:16.204Z,50.50
2023-05-16T15:49:01.638Z,51.55
2023-05-16T15:51:47.747Z,52.61
2023-05-16T15:54:33.657Z,53.14
2023-05-16T15:57:19.296Z,55.45
2023-05-16T16:00:05.790Z,55.05
2023-05-16T16:02:57.595Z,55.92
2023-05-16T16:05:43.067Z,56.09
2023-05-16T16:08:28.280Z,56.23
2023-05-16T16:11:13.504Z,57.37
2023-05-16T16:13:58.975Z,56.55
2023-05-16T16:16:45.469Z,56.03
2023-05-16T16:19:32.507Z,56.35
2023-05-16T16:22:17.692Z,55.86
2023-05-16T16:25:03.047Z,55.82
2023-05-16T16:27:48.359Z,56.04
2023-05-16T16:30:34.094Z,55.87
2023-05-16T16:33:19.697Z,56.60
2023-05-16T16:36:06.135Z,56.15
2023-05-16T16:38:51.487Z,55.80
2023-05-16T16:41:36.761Z,54.93
2023-05-16T16:44:22.314Z,55.23
2023-05-16T16:47:08.570Z,55.87
2023-05-16T16:50:23.403Z,57.08
2023-05-16T16:53:11.503Z,55.76
2023-05-16T16:55:57.100Z,55.71
2023-05-16T16:58:42.398Z,55.92
2023-05-16T17:01:29.863Z,55.77
2023-05-16T17:04:15.756Z,55.85
2023-05-16T17:07:01.839Z,55.55
2023-05-16T17:09:47.792Z,55.45
2023-05-16T17:12:34.550Z,56.12
2023-05-16T17:15:20.916Z,55.45
2023-05-16T17:18:09.311Z,55.53
2023-05-16T17:20:56.006Z,55.88
2023-05-16T17:23:44.359Z,55.42
2023-05-16T17:26:35.086Z,56.63
2023-05-16T17:29:21.817Z,55.62
2023-05-16T17:32:07.446Z,55.23
2023-05-16T17:34:54.406Z,55.55
2023-05-16T17:37:39.828Z,55.74
2023-05-16T17:40:25.196Z,55.76
2023-05-16T17:43:10.491Z,55.95
2023-05-16T17:45:56.044Z,55.72
2023-05-16T17:48:42.381Z,55.16
2023-05-16T17:51:28.334Z,54.97
2023-05-16T17:54:17.290Z,54.89
2023-05-16T17:57:02.978Z,54.50
2023-05-16T17:59:48.385Z,54.78
2023-05-16T18:02:36.644Z,54.82
2023-05-16T18:05:24.360Z,54.52
2023-05-16T18:08:09.719Z,54.49
2023-05-16T18:10:55.582Z,54.48
2023-05-16T18:13:41.000Z,54.66
2023-05-16T18:16:26.685Z,54.14
2023-05-16T18:20:09.548Z,54.17
2023-05-16T18:22:54.860Z,53.70
2023-05-16T18:25:40.160Z,53.85
2023-05-16T18:28:25.568Z,53.73
2023-05-16T18:31:11.744Z,53.90
2023-05-16T18:33:57.731Z,53.74
2023-05-16T18:36:43.373Z,53.62
2023-05-16T18:39:28.644Z,53.47
2023-05-16T18:42:15.898Z,53.60
2023-05-16T18:45:01.503Z,53.21
2023-05-16T18:47:47.286Z,53.22
2023-05-16T18:50:32.894Z,53.10
2023-05-16T18:53:18.324Z,53.10
2023-05-16T18:56:04.919Z,53.04
2023-05-16T18:58:50.806Z,53.06
2023-05-16T19:01:37.000Z,53.04
2023-05-16T19:04:22.574Z,52.93
2023-05-16T19:07:09.390Z,53.00
2023-05-16T19:09:54.967Z,52.72
2023-05-16T19:12:40.678Z,52.71
2023-05-16T19:15:26.388Z,52.74
2023-05-16T19:18:12.031Z,52.76
2023-05-16T19:20:57.529Z,52.59
2023-05-16T19:23:42.887Z,52.70
2023-05-16T19:26:28.560Z,52.66
2023-05-16T19:29:13.914Z,52.63
2023-05-16T19:31:59.311Z,52.65
2023-05-16T19:34:45.011Z,53.10
2023-05-16T19:37:30.922Z,52.78
2023-05-16T19:40:17.380Z,52.76
2023-05-16T19:43:03.278Z,52.88
2023-05-16T19:45:48.882Z,53.06
2023-05-16T19:48:35.297Z,53.33
2023-05-16T19:51:33.217Z,54.72
2023-05-16T19:54:26.285Z,53.24
2023-05-16T19:57:11.837Z,54.05
2023-05-16T19:59:56.974Z,54.66
2023-05-16T20:02:43.280Z,54.21
2023-05-16T20:05:29.300Z,54.10
2023-05-16T20:08:15.051Z,54.26
2023-05-16T20:11:00.365Z,53.79
2023-05-16T20:13:45.678Z,53.90
2023-05-16T20:16:31.061Z,53.89
2023-05-16T20:22:04.965Z,53.91
2023-05-16T20:24:50.327Z,54.11
2023-05-16T20:27:35.753Z,53.83
2023-05-16T20:30:21.124Z,53.61
2023-05-16T20:33:06.630Z,53.21
2023-05-16T20:35:52.624Z,53.22
2023-05-16T20:38:38.921Z,53.38
2023-05-16T20:41:26.845Z,53.34
2023-05-16T20:44:12.095Z,53.48
2023-05-16T20:46:57.255Z,53.34
2023-05-16T20:49:42.583Z,53.33
2023-05-16T20:52:28.013Z,53.30
2023-05-16T20:55:13.467Z,53.20
2023-05-16T20:58:00.352Z,53.27
2023-05-16T21:00:48.138Z,53.21
2023-05-16T21:03:33.422Z,53.11
2023-05-16T21:06:18.884Z,53.14
2023-05-16T21:09:04.881Z,53.18
2023-05-16T21:11:50.226Z,53.03
2023-05-16T21:14:35.512Z,53.24
2023-05-16T21:17:21.411Z,53.16
2023-05-16T21:20:08.310Z,53.24
2023-05-16T21:22:53.862Z,53.21
2023-05-16T21:25:41.135Z,53.28
2023-05-16T21:28:26.577Z,53.18
2023-05-16T21:31:11.751Z,53.31
2023-05-16T21:33:57.038Z,53.32
2023-05-16T21:36:42.278Z,53.12
2023-05-16T21:39:27.672Z,53.18
2023-05-16T21:42:13.745Z,53.40
2023-05-16T21:44:59.220Z,53.24
2023-05-16T21:47:45.576Z,53.36
2023-05-16T21:50:31.259Z,53.25
2023-05-16T21:53:17.635Z,53.31
2023-05-16T21:56:03.312Z,53.38
2023-05-16T21:58:48.525Z,53.27
2023-05-16T22:01:33.969Z,53.35
2023-05-16T22:04:19.309Z,53.35
2023-05-16T22:07:05.255Z,53.28
2023-05-16T22:09:53.590Z,53.50
2023-05-16T22:12:39.189Z,53.33
2023-05-16T22:15:24.458Z,53.36
2023-05-16T22:18:10.330Z,53.38
2023-05-16T22:20:55.920Z,53.53
2023-05-16T22:23:41.547Z,53.53
2023-05-16T22:26:26.777Z,53.47
2023-05-16T22:29:11.995Z,53.59
2023-05-16T22:31:57.349Z,53.44
2023-05-16T22:34:42.564Z,53.41
2023-05-16T22:37:28.055Z,53.43
2023-05-16T22:40:13.201Z,53.58
2023-05-16T22:42:58.671Z,53.47
2023-05-16T22:45:44.037Z,53.42
2023-05-16T22:48:29.562Z,53.53
2023-05-16T22:51:15.522Z,53.54
2023-05-16T22:54:00.890Z,53.57
2023-05-16T22:56:46.126Z,53.42
2023-05-16T22:59:31.390Z,53.58
2023-05-16T23:02:16.714Z,53.42
2023-05-16T23:05:02.673Z,53.60
2023-05-16T23:07:48.062Z,53.52
2023-05-16T23:10:33.350Z,53.63
2023-05-16T23:13:18.673Z,53.56
2023-05-16T23:16:04.117Z,53.69
2023-05-16T23:18:49.621Z,53.52
2023-05-16T23:21:35.256Z,53.64
2023-05-16T23:24:20.707Z,53.61
2023-05-16T23:27:06.109Z,53.63
2023-05-16T23:29:51.448Z,53.74
2023-05-16T23:32:36.906Z,53.57
2023-05-16T23:35:22.242Z,53.71
2023-05-16T23:38:07.677Z,53.75
2023-05-16T23:40:53.021Z,53.65
2023-05-16T23:43:38.286Z,53.52
2023-05-16T23:46:23.449Z,53.56
2023-05-16T23:49:08.849Z,53.71
2023-05-16T23:51:57.855Z,53.57
2023-05-16T23:54:45.454Z,53.51
2023-05-16T23:57:30.664Z,53.66
